Time,TemperatureF,DewpointF,PressureIn,WindDirection,WindDirectionDegrees,WindSpeedMPH,WindSpeedGustMPH,Humidity,HourlyPrecipIn,Conditions,Clouds,dailyrainin,SoftwareType,DateUTC
2013-01-26 00:00:00,41.0,34.7,29.44,ESE,111,0.0,0.0,78,0.00,CLR,,0.00,WeatherDisplay:10.37,2013-01-25 23:00:00,
2013-01-26 00:05:00,41.0,34.7,29.44,SE,135,0.0,0.0,78,0.00,CLR,,0.00,WeatherDisplay:10.37,2013-01-25 23:05:00,
2013-01-26 00:10:00,41.2,35.2,29.44,SSE,147,0.0,0.0,79,0.00,CLR,,0.00,WeatherDisplay:10.37,2013-01-25 23:10:00,
2013-01-26 00:15:00,41.2,35.2,29.44,WSW,246,0.0,0.0,79,0.00,CLR,,0.00,WeatherDisplay:10.37,2013-01-25 23:15:00,
2013-01-26 00:20:00,41.2,35.2,29.44,West,270,0.0,0.0,79,0.00,CLR,,0.00,WeatherDisplay:10.37,2013-01-25 23:20:00,
2013-01-26 00:25:00,41.2,35.2,29.45,West,270,0.0,2.0,79,0.00,CLR,,0.00,WeatherDisplay:10.37,2013-01-25 23:25:00,
2013-01-26 00:30:00,41.2,35.2,29.45,West,270,0.0,2.0,79,0.00,CLR,,0.00,WeatherDisplay:10.37,2013-01-25 23:30:00,
2013-01-26 00:35:00,41.2,35.2,29.45,West,270,0.0,2.0,79,0.00,CLR,,0.00,WeatherDisplay:10.37,2013-01-25 23:35:00,
2013-01-26 00:40:00,41.4,35.3,29.46,WSW,256,0.0,2.0,79,0.00,CLR,,0.00,WeatherDisplay:10.37,2013-01-25 23:40:00,
2013-01-26 00:45:00,41.4,35.3,29.46,SSW,203,0.0,0.0,79,0.00,CLR,,0.00,WeatherDisplay:10.37,2013-01-25 23:45:00,
2013-01-26 00:50:00,41.4,35.3,29.46,South,180,0.0,0.0,79,0.00,CLR,,0.00,WeatherDisplay:10.37,2013-01-25 23:50:00,
2013-01-26 00:55:00,41.5,35.5,29.46,South,180,0.0,0.0,79,0.00,CLR,,0.00,WeatherDisplay:10.37,2013-01-25 23:55:00,
2013-01-26 01:00:00,41.5,35.5,29.46,South,180,0.0,0.0,79,0.00,CLR,,0.00,WeatherDisplay:10.37,2013-01-26 00:00:00,
2013-01-26 01:05:00,41.5,35.5,29.46,South,180,0.0,0.0,79,0.00,CLR,,0.00,WeatherDisplay:10.37,2013-01-26 00:05:00,
2013-01-26 01:10:00,41.7,35.7,29.47,SSW,192,0.0,0.0,79,0.00,CLR,,0.00,WeatherDisplay:10.37,2013-01-26 00:10:00,
2013-01-26 01:15:00,41.7,35.7,29.47,WNW,291,0.0,0.0,79,0.00,CLR,,0.00,WeatherDisplay:10.37,2013-01-26 00:15:00,
2013-01-26 01:20:00,41.7,35.7,29.47,NW,315,0.0,0.0,79,0.00,CLR,,0.00,WeatherDisplay:10.37,2013-01-26 00:20:00,
2013-01-26 01:25:00,41.9,36.2,29.47,NW,315,0.0,2.0,80,0.00,CLR,,0.00,WeatherDisplay:10.37,2013-01-26 00:25:00,
2013-01-26 01:30:00,41.9,36.2,29.47,NW,315,0.0,2.0,80,0.00,CLR,,0.00,WeatherDisplay:10.37,2013-01-26 00:30:00,
2013-01-26 01:35:00,41.9,36.2,29.47,NW,315,0.0,2.0,80,0.00,CLR,,0.00,WeatherDisplay:10.37,2013-01-26 00:35:00,
2013-01-26 01:40:00,42.3,36.2,29.46,NW,306,0.0,2.0,79,0.00,CLR,,0.00,WeatherDisplay:10.37,2013-01-26 00:40:00,
2013-01-26 01:45:00,42.3,36.2,29.46,WNW,283,0.0,1.0,79,0.00,CLR,,0.00,WeatherDisplay:10.37,2013-01-26 00:45:00,
2013-01-26 01:50:00,42.3,36.2,29.46,West,270,0.0,1.0,79,0.00,CLR,,0.00,WeatherDisplay:10.37,2013-01-26 00:50:00,
2013-01-26 01:55:00,43.0,36.9,29.47,WSW,258,0.0,2.0,79,0.00,CLR,,0.00,WeatherDisplay:10.37,2013-01-26 00:55:00,
2013-01-26 02:00:00,43.0,36.9,29.47,SW,221,0.0,2.0,79,0.00,CLR,,0.00,WeatherDisplay:10.37,2013-01-26 01:00:00,
2013-01-26 02:05:00,43.0,36.9,29.47,SSW,202,0.0,2.0,79,0.00,CLR,,0.00,WeatherDisplay:10.37,2013-01-26 01:05:00,
2013-01-26 02:10:00,43.5,37.1,29.47,SSW,207,0.0,2.0,78,0.00,CLR,,0.00,WeatherDisplay:10.37,2013-01-26 01:10:00,
2013-01-26 02:15:00,43.5,37.1,29.47,SW,218,0.0,1.0,78,0.00,CLR,,0.00,WeatherDisplay:10.37,2013-01-26 01:15:00,
2013-01-26 02:20:00,43.5,37.1,29.47,SW,225,0.0,1.0,78,0.00,CLR,,0.00,WeatherDisplay:10.37,2013-01-26 01:20:00,
2013-01-26 02:25:00,44.1,37.0,29.47,WSW,237,0.0,3.0,76,0.00,CLR,,0.00,WeatherDisplay:10.37,2013-01-26 01:25:00,
2013-01-26 02:30:00,44.1,37.0,29.47,NNW,336,0.0,3.0,76,0.00,CLR,,0.00,WeatherDisplay:10.37,2013-01-26 01:30:00,
2013-01-26 02:35:00,44.1,37.0,29.47,North,0,0.0,3.0,76,0.00,CLR,,0.00,WeatherDisplay:10.37,2013-01-26 01:35:00,
2013-01-26 02:40:00,44.8,37.3,29.48,North,0,0.0,3.0,75,0.00,CLR,,0.00,WeatherDisplay:10.37,2013-01-26 01:40:00,
2013-01-26 02:45:00,44.8,37.3,29.48,North,0,0.0,1.0,75,0.00,CLR,,0.00,WeatherDisplay:10.37,2013-01-26 01:45:00,
2013-01-26 02:50:00,44.8,37.3,29.48,North,0,0.0,1.0,75,0.00,CLR,,0.00,WeatherDisplay:10.37,2013-01-26 01:50:00,
2013-01-26 02:55:00,45.3,37.5,29.48,North,7,0.0,1.0,74,0.00,CLR,,0.00,WeatherDisplay:10.37,2013-01-26 01:55:00,
2013-01-26 03:00:00,45.3,37.5,29.48,SE,143,0.0,0.0,74,0.00,CLR,,0.00,WeatherDisplay:10.37,2013-01-26 02:00:00,
2013-01-26 03:05:00,45.3,37.5,29.48,SSE,158,0.0,0.0,74,0.00,CLR,,0.00,WeatherDisplay:10.37,2013-01-26 02:05:00,
2013-01-26 03:10:00,45.9,37.7,29.48,South,169,1.0,2.0,73,0.00,CLR,,0.00,WeatherDisplay:10.37,2013-01-26 02:10:00,
2013-01-26 03:15:00,45.9,37.7,29.48,NW,305,1.0,2.0,73,0.00,CLR,,0.00,WeatherDisplay:10.37,2013-01-26 02:15:00,
2013-01-26 03:20:00,45.9,37.7,29.48,NW,315,1.0,2.0,73,0.00,CLR,,0.00,WeatherDisplay:10.37,2013-01-26 02:20:00,
2013-01-26 03:25:00,46.6,38.0,29.49,NW,319,1.0,2.0,72,0.00,CLR,,0.00,WeatherDisplay:10.37,2013-01-26 02:25:00,
2013-01-26 03:30:00,46.6,38.0,29.49,NNW,338,1.0,2.0,72,0.00,CLR,,0.00,WeatherDisplay:10.37,2013-01-26 02:30:00,
2013-01-26 03:35:00,46.6,38.0,29.49,North,0,1.0,2.0,72,0.00,CLR,,0.00,WeatherDisplay:10.37,2013-01-26 02:35:00,
2013-01-26 03:40:00,47.1,38.2,29.50,NNW,346,1.0,2.0,71,0.00,CLR,,0.00,WeatherDisplay:10.37,2013-01-26 02:40:00,
2013-01-26 03:45:00,47.1,38.2,29.50,WNW,293,1.0,2.0,71,0.00,CLR,,0.00,WeatherDisplay:10.37,2013-01-26 02:45:00,
2013-01-26 03:50:00,47.1,38.2,29.50,West,270,1.0,2.0,71,0.00,CLR,,0.00,WeatherDisplay:10.37,2013-01-26 02:50:00,
2013-01-26 03:55:00,47.3,38.0,29.50,WNW,293,0.0,2.0,70,0.00,CLR,,0.00,WeatherDisplay:10.37,2013-01-26 02:55:00,
2013-01-26 04:00:00,47.3,38.0,29.50,NNE,33,0.0,0.0,70,0.00,CLR,,0.00,WeatherDisplay:10.37,2013-01-26 03:00:00,
2013-01-26 04:05:00,47.3,38.0,29.50,NE,45,0.0,0.0,70,0.00,CLR,,0.00,WeatherDisplay:10.37,2013-01-26 03:05:00,
2013-01-26 07:25:00,50.0,38.7,29.51,NE,38,3.0,6.0,65,0.00,CLR,,0.00,WeatherDisplay:10.37,2013-01-26 06:25:00,
2013-01-26 07:30:00,50.0,38.7,29.51,East,85,3.0,6.0,65,0.00,CLR,,0.00,WeatherDisplay:10.37,2013-01-26 06:30:00,
2013-01-26 07:35:00,50.0,38.7,29.51,East,90,3.0,6.0,65,0.00,CLR,,0.00,WeatherDisplay:10.37,2013-01-26 06:35:00,
2013-01-26 07:40:00,49.8,38.5,29.51,East,90,1.0,6.0,65,0.00,CLR,,0.00,WeatherDisplay:10.37,2013-01-26 06:40:00,
2013-01-26 07:45:00,49.8,38.5,29.51,East,90,1.0,3.0,65,0.00,CLR,,0.00,WeatherDisplay:10.37,2013-01-26 06:45:00,
2013-01-26 07:50:00,49.8,38.5,29.51,East,90,1.0,3.0,65,0.00,CLR,,0.00,WeatherDisplay:10.37,2013-01-26 06:50:00,
2013-01-26 07:55:00,50.0,38.7,29.50,East,90,0.0,3.0,65,0.00,CLR,,0.00,WeatherDisplay:10.37,2013-01-26 06:55:00,
2013-01-26 08:00:00,50.0,38.7,29.50,East,90,0.0,2.0,65,0.00,CLR,,0.00,WeatherDisplay:10.37,2013-01-26 07:00:00,
2013-01-26 08:05:00,50.0,38.7,29.50,East,90,0.0,2.0,65,0.00,CLR,,0.00,WeatherDisplay:10.37,2013-01-26 07:05:00,
2013-01-26 08:10:00,49.8,38.5,29.51,East,82,1.0,2.0,65,0.00,CLR,,0.00,WeatherDisplay:10.37,2013-01-26 07:10:00,
2013-01-26 08:15:00,49.8,38.5,29.51,NE,43,1.0,2.0,65,0.00,CLR,,0.00,WeatherDisplay:10.37,2013-01-26 07:15:00,
2013-01-26 08:20:00,49.8,38.5,29.51,NNE,22,1.0,2.0,65,0.00,CLR,,0.00,WeatherDisplay:10.37,2013-01-26 07:20:00,
2013-01-26 08:25:00,49.6,38.7,29.50,NNE,22,1.0,3.0,66,0.00,CLR,,0.00,WeatherDisplay:10.37,2013-01-26 07:25:00,
2013-01-26 08:30:00,49.6,38.7,29.50,NNE,22,1.0,3.0,66,0.00,CLR,,0.00,WeatherDisplay:10.37,2013-01-26 07:30:00,
2013-01-26 08:35:00,49.6,38.7,29.50,NNE,22,1.0,3.0,66,0.00,CLR,,0.00,WeatherDisplay:10.37,2013-01-26 07:35:00,
2013-01-26 08:40:00,49.8,38.9,29.51,NNE,24,0.0,3.0,66,0.00,CLR,,0.00,WeatherDisplay:10.37,2013-01-26 07:40:00,
2013-01-26 08:45:00,49.8,38.9,29.51,NE,34,0.0,2.0,66,0.00,CLR,,0.00,WeatherDisplay:10.37,2013-01-26 07:45:00,
2013-01-26 08:50:00,49.8,38.9,29.51,NE,45,0.0,2.0,66,0.00,CLR,,0.00,WeatherDisplay:10.37,2013-01-26 07:50:00,
2013-01-26 08:55:00,50.0,39.1,29.51,NE,45,1.0,4.0,66,0.00,CLR,,0.00,WeatherDisplay:10.37,2013-01-26 07:55:00,
2013-01-26 09:00:00,50.0,39.1,29.51,NE,45,1.0,4.0,66,0.00,CLR,,0.00,WeatherDisplay:10.37,2013-01-26 08:00:00,
2013-01-26 09:05:00,50.0,39.1,29.51,NE,45,1.0,4.0,66,0.00,CLR,,0.00,WeatherDisplay:10.37,2013-01-26 08:05:00,
2013-01-26 09:10:00,50.0,39.1,29.51,NE,45,0.0,4.0,66,0.00,CLR,,0.00,WeatherDisplay:10.37,2013-01-26 08:10:00,
2013-01-26 09:15:00,50.0,39.1,29.51,NE,45,0.0,1.0,66,0.00,CLR,,0.00,WeatherDisplay:10.37,2013-01-26 08:15:00,
2013-01-26 09:20:00,50.0,39.1,29.51,NE,45,0.0,1.0,66,0.00,CLR,,0.00,WeatherDisplay:10.37,2013-01-26 08:20:00,
2013-01-26 09:25:00,49.8,38.9,29.51,NE,45,1.0,4.0,66,0.00,CLR,,0.00,WeatherDisplay:10.37,2013-01-26 08:25:00,
2013-01-26 09:30:00,49.8,38.9,29.51,NE,45,1.0,4.0,66,0.00,CLR,,0.00,WeatherDisplay:10.37,2013-01-26 08:30:00,
2013-01-26 09:35:00,49.8,38.9,29.51,NE,45,1.0,4.0,66,0.00,CLR,,0.00,WeatherDisplay:10.37,2013-01-26 08:35:00,
2013-01-26 09:40:00,49.6,38.7,29.51,NE,45,1.0,4.0,66,0.00,CLR,,0.00,WeatherDisplay:10.37,2013-01-26 08:40:00,
2013-01-26 09:45:00,49.6,38.7,29.51,NE,45,1.0,4.0,66,0.00,CLR,,0.00,WeatherDisplay:10.37,2013-01-26 08:45:00,
2013-01-26 09:50:00,49.6,38.7,29.51,NE,45,1.0,4.0,66,0.00,CLR,,0.00,WeatherDisplay:10.37,2013-01-26 08:50:00,
2013-01-26 09:55:00,49.5,39.0,29.51,NE,48,0.0,4.0,67,0.00,CLR,,0.00,WeatherDisplay:10.37,2013-01-26 08:55:00,
2013-01-26 10:00:00,49.5,39.0,29.51,ENE,69,0.0,1.0,67,0.00,CLR,,0.00,WeatherDisplay:10.37,2013-01-26 09:00:00,
2013-01-26 10:05:00,49.5,39.0,29.51,East,90,0.0,1.0,67,0.00,CLR,,0.00,WeatherDisplay:10.37,2013-01-26 09:05:00,
2013-01-26 10:09:00,47.3,38.0,29.50,NE,45,0.0,0.0,70,0.00,CLR,,0.00,WeatherDisplay:10.37,2013-01-26 09:09:00,
2013-01-26 10:10:00,47.3,38.0,29.50,NE,45,0.0,0.0,70,0.00,CLR,,0.00,WeatherDisplay:10.37,2013-01-26 09:10:00,
2013-01-26 10:15:00,47.7,38.0,29.50,South,180,1.1,0.0,69,0.00,CLR,,0.00,WeatherDisplay:10.37,2013-01-26 09:15:00,
2013-01-26 10:20:00,48.0,38.0,29.51,West,270,0.0,0.0,68,0.00,CLR,,0.00,WeatherDisplay:10.37,2013-01-26 09:20:00,
2013-01-26 10:25:00,48.0,38.0,29.51,West,270,3.5,0.0,68,0.00,CLR,,0.00,WeatherDisplay:10.37,2013-01-26 09:25:00,
2013-01-26 10:30:00,48.2,38.1,29.51,NW,315,1.1,1.1,68,0.00,CLR,,0.00,WeatherDisplay:10.37,2013-01-26 09:30:00,
2013-01-26 10:35:00,48.2,38.1,29.51,NW,315,3.5,3.5,68,0.00,CLR,,0.00,WeatherDisplay:10.37,2013-01-26 09:35:00,
2013-01-26 10:40:00,48.2,38.1,29.51,NE,45,4.6,4.6,68,0.00,CLR,,0.00,WeatherDisplay:10.37,2013-01-26 09:40:00,
2013-01-26 10:45:00,48.2,37.8,29.51,WSW,248,5.8,5.8,67,0.00,CLR,,0.00,WeatherDisplay:10.37,2013-01-26 09:45:00,
2013-01-26 10:50:00,48.2,37.8,29.51,NW,315,5.8,5.8,67,0.00,CLR,,0.00,WeatherDisplay:10.37,2013-01-26 09:50:00,
2013-01-26 10:55:00,48.2,37.4,29.51,NW,315,3.5,3.5,66,0.00,CLR,,0.00,WeatherDisplay:10.37,2013-01-26 09:55:00,
2013-01-26 11:00:00,48.4,37.5,29.51,NW,315,3.5,3.5,66,0.00,CLR,,0.00,WeatherDisplay:10.37,2013-01-26 10:00:00,
2013-01-26 11:05:00,48.4,37.5,29.51,NW,315,3.5,3.5,66,0.00,CLR,,0.00,WeatherDisplay:10.37,2013-01-26 10:05:00,
2013-01-26 11:10:00,48.6,37.7,29.51,NE,45,6.9,6.9,66,0.00,CLR,,0.00,WeatherDisplay:10.37,2013-01-26 10:10:00,
2013-01-26 11:15:00,48.6,37.7,29.51,West,270,6.9,6.9,66,0.00,CLR,,0.00,WeatherDisplay:10.37,2013-01-26 10:15:00,
2013-01-26 11:20:00,48.7,37.9,29.51,East,90,5.8,5.8,66,0.00,CLR,,0.00,WeatherDisplay:10.37,2013-01-26 10:20:00,
2013-01-26 11:25:00,48.7,37.9,29.51,North,0,5.8,5.8,66,0.00,CLR,,0.00,WeatherDisplay:10.37,2013-01-26 10:25:00,
2013-01-26 11:30:00,48.7,37.9,29.51,SE,135,5.8,5.8,66,0.00,CLR,,0.00,WeatherDisplay:10.37,2013-01-26 10:30:00,
2013-01-26 11:35:00,48.7,37.9,29.51,ENE,68,3.5,3.5,66,0.00,CLR,,0.00,WeatherDisplay:10.37,2013-01-26 10:35:00,
2013-01-26 11:40:00,48.7,37.9,29.51,NE,45,5.8,5.8,66,0.00,CLR,,0.00,WeatherDisplay:10.37,2013-01-26 10:40:00,
2013-01-26 11:45:00,48.7,37.5,29.51,NE,45,5.8,5.8,65,0.00,CLR,,0.00,WeatherDisplay:10.37,2013-01-26 10:45:00,
2013-01-26 11:50:00,48.7,37.9,29.51,NW,315,5.8,5.8,66,0.00,CLR,,0.00,WeatherDisplay:10.37,2013-01-26 10:50:00,
2013-01-26 11:55:00,48.7,37.9,29.51,SE,135,6.9,6.9,66,0.00,CLR,,0.00,WeatherDisplay:10.37,2013-01-26 10:55:00,
2013-01-26 12:00:00,48.7,37.9,29.51,East,90,4.6,4.6,66,0.00,CLR,,0.00,WeatherDisplay:10.37,2013-01-26 11:00:00,
2013-01-26 12:05:00,48.7,37.9,29.51,East,90,5.8,5.8,66,0.00,CLR,,0.00,WeatherDisplay:10.37,2013-01-26 11:05:00,
2013-01-26 12:10:00,49.1,37.8,29.51,NE,45,6.9,6.9,65,0.00,CLR,,0.00,WeatherDisplay:10.37,2013-01-26 11:10:00,
2013-01-26 12:15:00,49.1,37.8,29.51,East,90,4.6,4.6,65,0.00,CLR,,0.00,WeatherDisplay:10.37,2013-01-26 11:15:00,
2013-01-26 12:20:00,49.1,37.8,29.51,North,0,2.3,2.3,65,0.00,CLR,,0.00,WeatherDisplay:10.37,2013-01-26 11:20:00,
2013-01-26 12:25:00,49.3,38.0,29.51,East,90,3.5,3.5,65,0.00,CLR,,0.00,WeatherDisplay:10.37,2013-01-26 11:25:00,
2013-01-26 12:30:00,49.3,38.4,29.51,North,0,4.6,4.6,66,0.00,CLR,,0.00,WeatherDisplay:10.37,2013-01-26 11:30:00,
2013-01-26 12:35:00,49.3,38.0,29.51,NE,45,5.8,5.8,65,0.00,CLR,,0.00,WeatherDisplay:10.37,2013-01-26 11:35:00,
2013-01-26 12:40:00,45.3,35.0,29.58,East,92,1.0,2.0,67,0.00,CLR,,0.00,WeatherDisplay:10.37,2013-01-26 11:40:00,
2013-01-26 12:41:00,49.5,38.2,29.51,North,0,3.5,0.0,65,0.00,CLR,,0.00,WeatherDisplay:10.37,2013-01-26 11:41:00,
2013-01-26 12:45:00,45.3,35.0,29.58,ESE,103,1.0,2.0,67,0.00,CLR,,0.00,WeatherDisplay:10.37,2013-01-26 11:45:00,
2013-01-26 12:46:00,49.5,38.2,29.51,South,180,2.3,2.3,65,0.00,CLR,,0.00,WeatherDisplay:10.37,2013-01-26 11:46:00,
2013-01-26 12:50:00,45.3,35.0,29.58,ESE,112,1.0,2.0,67,0.00,CLR,,0.00,WeatherDisplay:10.37,2013-01-26 11:50:00,
2013-01-26 12:51:00,49.8,38.9,29.51,SSW,202,4.6,4.6,66,0.00,CLR,,0.00,WeatherDisplay:10.37,2013-01-26 11:51:00,
2013-01-26 12:55:00,45.1,34.8,29.59,ESE,110,1.0,3.0,67,0.00,CLR,,0.00,WeatherDisplay:10.37,2013-01-26 11:55:00,
2013-01-26 12:56:00,49.8,38.9,29.51,NW,315,3.8,3.8,66,0.00,CLR,,0.00,WeatherDisplay:10.37,2013-01-26 11:56:00,
2013-01-26 13:00:00,45.1,34.8,29.59,East,99,1.0,3.0,67,0.00,CLR,,0.00,WeatherDisplay:10.37,2013-01-26 12:00:00,
2013-01-26 13:01:00,50.0,38.7,29.51,NE,45,5.8,5.8,65,0.00,CLR,,0.00,WeatherDisplay:10.37,2013-01-26 12:01:00,
2013-01-26 13:05:00,45.1,34.8,29.59,East,90,1.0,3.0,67,0.00,CLR,,0.00,WeatherDisplay:10.37,2013-01-26 12:05:00,
2013-01-26 13:06:00,50.0,38.7,29.51,ENE,68,5.8,5.8,65,0.00,CLR,,0.00,WeatherDisplay:10.37,2013-01-26 12:06:00,
2013-01-26 13:10:00,45.1,34.8,29.59,ENE,75,1.0,3.0,67,0.00,CLR,,0.00,WeatherDisplay:10.37,2013-01-26 12:10:00,
2013-01-26 13:11:00,50.0,38.7,29.51,NE,45,5.8,5.8,65,0.00,CLR,,0.00,WeatherDisplay:10.37,2013-01-26 12:11:00,
2013-01-26 13:15:00,45.1,34.8,29.59,NNE,16,1.0,3.0,67,0.00,CLR,,0.00,WeatherDisplay:10.37,2013-01-26 12:15:00,
2013-01-26 13:16:00,50.0,38.7,29.51,North,0,4.6,4.6,65,0.00,CLR,,0.00,WeatherDisplay:10.37,2013-01-26 12:16:00,
2013-01-26 13:20:00,45.1,34.8,29.59,North,0,1.0,3.0,67,0.00,CLR,,0.00,WeatherDisplay:10.37,2013-01-26 12:20:00,
2013-01-26 13:21:00,50.0,38.7,29.51,East,90,4.6,4.6,65,0.00,CLR,,0.00,WeatherDisplay:10.37,2013-01-26 12:21:00,
2013-01-26 13:25:00,45.1,35.2,29.59,North,5,0.0,4.0,68,0.00,CLR,,0.00,WeatherDisplay:10.37,2013-01-26 12:25:00,
2013-01-26 13:30:00,45.1,35.2,29.59,NE,48,0.0,4.0,68,0.00,CLR,,0.00,WeatherDisplay:10.37,2013-01-26 12:30:00,
2013-01-26 13:35:00,45.1,35.2,29.59,East,90,0.0,4.0,68,0.00,CLR,,0.00,WeatherDisplay:10.37,2013-01-26 12:35:00,
2013-01-26 13:40:00,45.0,35.0,29.60,East,84,0.0,4.0,68,0.00,CLR,,0.00,WeatherDisplay:10.37,2013-01-26 12:40:00,
2013-01-26 13:45:00,45.0,35.0,29.60,NE,34,0.0,2.0,68,0.00,CLR,,0.00,WeatherDisplay:10.37,2013-01-26 12:45:00,
2013-01-26 13:50:00,45.0,35.0,29.60,North,0,0.0,2.0,68,0.00,CLR,,0.00,WeatherDisplay:10.37,2013-01-26 12:50:00,
2013-01-26 13:55:00,44.8,34.9,29.61,North,2,0.0,2.0,68,0.00,CLR,,0.00,WeatherDisplay:10.37,2013-01-26 12:55:00,
2013-01-26 14:00:00,44.8,34.9,29.61,NNE,13,0.0,2.0,68,0.00,CLR,,0.00,WeatherDisplay:10.37,2013-01-26 13:00:00,
2013-01-26 14:05:00,44.8,34.9,29.61,NNE,22,0.0,2.0,68,0.00,CLR,,0.00,WeatherDisplay:10.37,2013-01-26 13:05:00,
2013-01-26 14:10:00,44.6,34.7,29.62,NNE,24,0.0,2.0,68,0.00,CLR,,0.00,WeatherDisplay:10.37,2013-01-26 13:10:00,
2013-01-26 14:15:00,44.6,34.7,29.62,NE,36,0.0,2.0,68,0.00,CLR,,0.00,WeatherDisplay:10.37,2013-01-26 13:15:00,
2013-01-26 14:20:00,44.6,34.7,29.62,NE,45,0.0,2.0,68,0.00,CLR,,0.00,WeatherDisplay:10.37,2013-01-26 13:20:00,
2013-01-26 14:25:00,44.6,35.1,29.62,NE,45,0.0,2.0,69,0.00,CLR,,0.00,WeatherDisplay:10.37,2013-01-26 13:25:00,
2013-01-26 14:30:00,44.6,35.1,29.62,NE,45,0.0,1.0,69,0.00,CLR,,0.00,WeatherDisplay:10.37,2013-01-26 13:30:00,
2013-01-26 14:35:00,44.6,35.1,29.62,NE,45,0.0,1.0,69,0.00,CLR,,0.00,WeatherDisplay:10.37,2013-01-26 13:35:00,
2013-01-26 14:40:00,44.6,35.1,29.63,NE,45,0.0,1.0,69,0.00,CLR,,0.00,WeatherDisplay:10.37,2013-01-26 13:40:00,
2013-01-26 14:45:00,44.6,35.1,29.63,NE,45,0.0,1.0,69,0.00,CLR,,0.00,WeatherDisplay:10.37,2013-01-26 13:45:00,
2013-01-26 14:50:00,44.6,35.1,29.63,NE,45,0.0,1.0,69,0.00,CLR,,0.00,WeatherDisplay:10.37,2013-01-26 13:50:00,
2013-01-26 14:55:00,44.6,35.1,29.63,NE,39,1.0,3.0,69,0.00,CLR,,0.00,WeatherDisplay:10.37,2013-01-26 13:55:00,
2013-01-26 15:00:00,44.6,35.1,29.63,NNE,14,1.0,3.0,69,0.00,CLR,,0.00,WeatherDisplay:10.37,2013-01-26 14:00:00,
2013-01-26 15:05:00,44.6,35.1,29.63,North,0,1.0,3.0,69,0.00,CLR,,0.00,WeatherDisplay:10.37,2013-01-26 14:05:00,
2013-01-26 15:10:00,44.6,35.1,29.64,North,0,0.0,3.0,69,0.00,CLR,,0.00,WeatherDisplay:10.37,2013-01-26 14:10:00,
2013-01-26 15:15:00,44.6,35.1,29.64,North,0,0.0,2.0,69,0.00,CLR,,0.00,WeatherDisplay:10.37,2013-01-26 14:15:00,
2013-01-26 15:20:00,44.6,35.1,29.64,North,0,0.0,2.0,69,0.00,CLR,,0.00,WeatherDisplay:10.37,2013-01-26 14:20:00,
2013-01-26 15:25:00,44.6,35.1,29.65,North,357,1.0,2.0,69,0.00,CLR,,0.00,WeatherDisplay:10.37,2013-01-26 14:25:00,
2013-01-26 15:30:00,44.6,35.1,29.65,NNW,339,1.0,2.0,69,0.00,CLR,,0.00,WeatherDisplay:10.37,2013-01-26 14:30:00,
2013-01-26 15:35:00,44.6,35.1,29.65,NW,315,1.0,2.0,69,0.00,CLR,,0.00,WeatherDisplay:10.37,2013-01-26 14:35:00,
2013-01-26 15:40:00,44.6,35.1,29.65,NW,319,1.0,2.0,69,0.00,CLR,,0.00,WeatherDisplay:10.37,2013-01-26 14:40:00,
2013-01-26 15:45:00,44.6,35.1,29.65,NNW,342,1.0,2.0,69,0.00,CLR,,0.00,WeatherDisplay:10.37,2013-01-26 14:45:00,
2013-01-26 15:50:00,44.6,35.1,29.65,North,0,1.0,2.0,69,0.00,CLR,,0.00,WeatherDisplay:10.37,2013-01-26 14:50:00,
2013-01-26 15:55:00,44.4,34.9,29.65,North,9,0.0,2.0,69,0.00,CLR,,0.00,WeatherDisplay:10.37,2013-01-26 14:55:00,
2013-01-26 16:00:00,44.4,34.9,29.65,ESE,114,0.0,1.0,69,0.00,CLR,,0.00,WeatherDisplay:10.37,2013-01-26 15:00:00,
2013-01-26 16:05:00,44.4,34.9,29.65,SE,135,0.0,1.0,69,0.00,CLR,,0.00,WeatherDisplay:10.37,2013-01-26 15:05:00,
2013-01-26 16:10:00,44.1,34.5,29.65,SE,140,0.0,1.0,69,0.00,CLR,,0.00,WeatherDisplay:10.37,2013-01-26 15:10:00,
2013-01-26 16:15:00,44.1,34.5,29.65,SW,228,0.0,1.0,69,0.00,CLR,,0.00,WeatherDisplay:10.37,2013-01-26 15:15:00,
2013-01-26 16:20:00,44.1,34.5,29.65,West,270,0.0,1.0,69,0.00,CLR,,0.00,WeatherDisplay:10.37,2013-01-26 15:20:00,
2013-01-26 16:25:00,43.5,34.0,29.65,West,276,1.0,3.0,69,0.00,CLR,,0.00,WeatherDisplay:10.37,2013-01-26 15:25:00,
2013-01-26 16:30:00,43.5,34.0,29.65,WNW,301,1.0,3.0,69,0.00,CLR,,0.00,WeatherDisplay:10.37,2013-01-26 15:30:00,
2013-01-26 16:35:00,43.5,34.0,29.65,NW,315,1.0,3.0,69,0.00,CLR,,0.00,WeatherDisplay:10.37,2013-01-26 15:35:00,
2013-01-26 16:40:00,43.3,34.2,29.66,NW,312,0.0,3.0,70,0.00,CLR,,0.00,WeatherDisplay:10.37,2013-01-26 15:40:00,
2013-01-26 16:45:00,43.3,34.2,29.66,WNW,291,0.0,2.0,70,0.00,CLR,,0.00,WeatherDisplay:10.37,2013-01-26 15:45:00,
2013-01-26 16:50:00,43.3,34.2,29.66,West,270,0.0,2.0,70,0.00,CLR,,0.00,WeatherDisplay:10.37,2013-01-26 15:50:00,
2013-01-26 16:55:00,43.2,34.0,29.66,West,270,0.0,2.0,70,0.00,CLR,,0.00,WeatherDisplay:10.37,2013-01-26 15:55:00,
2013-01-26 17:00:00,43.2,34.0,29.66,West,270,0.0,1.0,70,0.00,CLR,,0.00,WeatherDisplay:10.37,2013-01-26 16:00:00,
2013-01-26 17:05:00,43.2,34.0,29.66,West,270,0.0,1.0,70,0.00,CLR,,0.00,WeatherDisplay:10.37,2013-01-26 16:05:00,
2013-01-26 17:10:00,43.0,33.9,29.67,West,266,0.0,1.0,70,0.00,CLR,,0.00,WeatherDisplay:10.37,2013-01-26 16:10:00,
2013-01-26 17:15:00,43.0,33.9,29.67,WSW,243,0.0,0.0,70,0.00,CLR,,0.00,WeatherDisplay:10.37,2013-01-26 16:15:00,
2013-01-26 17:20:00,43.0,33.9,29.67,SW,225,0.0,0.0,70,0.00,CLR,,0.00,WeatherDisplay:10.37,2013-01-26 16:20:00,
2013-01-26 17:25:00,42.8,34.0,29.67,SW,228,1.0,2.0,71,0.00,CLR,,0.00,WeatherDisplay:10.37,2013-01-26 16:25:00,
2013-01-26 17:30:00,42.8,34.0,29.67,WSW,246,1.0,2.0,71,0.00,CLR,,0.00,WeatherDisplay:10.37,2013-01-26 16:30:00,
2013-01-26 17:35:00,42.8,34.0,29.67,West,270,1.0,2.0,71,0.00,CLR,,0.00,WeatherDisplay:10.37,2013-01-26 16:35:00,
2013-01-26 17:40:00,42.6,33.9,29.66,West,281,0.0,2.0,71,0.00,CLR,,0.00,WeatherDisplay:10.37,2013-01-26 16:40:00,
2013-01-26 17:45:00,42.6,33.9,29.66,NNW,339,0.0,2.0,71,0.00,CLR,,0.00,WeatherDisplay:10.37,2013-01-26 16:45:00,
2013-01-26 17:50:00,42.6,33.9,29.66,North,0,0.0,2.0,71,0.00,CLR,,0.00,WeatherDisplay:10.37,2013-01-26 16:50:00,
2013-01-26 17:55:00,42.4,33.7,29.67,North,0,1.0,2.0,71,0.00,CLR,,0.00,WeatherDisplay:10.37,2013-01-26 16:55:00,
2013-01-26 18:00:00,42.4,33.7,29.67,North,0,1.0,2.0,71,0.00,CLR,,0.00,WeatherDisplay:10.37,2013-01-26 17:00:00,
2013-01-26 18:05:00,42.4,33.7,29.67,North,0,1.0,2.0,71,0.00,CLR,,0.00,WeatherDisplay:10.37,2013-01-26 17:05:00,
2013-01-26 18:10:00,42.3,33.9,29.67,North,349,0.0,2.0,72,0.00,CLR,,0.00,WeatherDisplay:10.37,2013-01-26 17:10:00,
2013-01-26 18:15:00,42.3,33.9,29.67,WNW,291,0.0,0.0,72,0.00,CLR,,0.00,WeatherDisplay:10.37,2013-01-26 17:15:00,
2013-01-26 18:20:00,42.3,33.9,29.67,West,270,0.0,0.0,72,0.00,CLR,,0.00,WeatherDisplay:10.37,2013-01-26 17:20:00,
2013-01-26 18:25:00,42.1,33.7,29.67,West,276,0.0,2.0,72,0.00,CLR,,0.00,WeatherDisplay:10.37,2013-01-26 17:25:00,
2013-01-26 18:30:00,42.1,33.7,29.67,NW,326,0.0,2.0,72,0.00,CLR,,0.00,WeatherDisplay:10.37,2013-01-26 17:30:00,
2013-01-26 18:35:00,42.1,33.7,29.67,North,0,0.0,2.0,72,0.00,CLR,,0.00,WeatherDisplay:10.37,2013-01-26 17:35:00,
2013-01-26 18:40:00,41.9,33.5,29.67,North,4,0.0,2.0,72,0.00,CLR,,0.00,WeatherDisplay:10.37,2013-01-26 17:40:00,
2013-01-26 18:45:00,41.9,33.5,29.67,NNE,27,0.0,1.0,72,0.00,CLR,,0.00,WeatherDisplay:10.37,2013-01-26 17:45:00,
2013-01-26 18:50:00,41.9,33.5,29.67,NE,45,0.0,1.0,72,0.00,CLR,,0.00,WeatherDisplay:10.37,2013-01-26 17:50:00,
2013-01-26 18:55:00,41.9,33.5,29.67,NE,40,0.0,1.0,72,0.00,CLR,,0.00,WeatherDisplay:10.37,2013-01-26 17:55:00,
2013-01-26 19:00:00,41.9,33.5,29.67,NW,312,0.0,1.0,72,0.00,CLR,,0.00,WeatherDisplay:10.37,2013-01-26 18:00:00,
2013-01-26 19:05:00,41.9,33.5,29.67,West,270,0.0,1.0,72,0.00,CLR,,0.00,WeatherDisplay:10.37,2013-01-26 18:05:00,
2013-01-26 19:10:00,41.5,33.5,29.67,West,270,0.0,1.0,73,0.00,CLR,,0.00,WeatherDisplay:10.37,2013-01-26 18:10:00,
2013-01-26 19:15:00,41.5,33.5,29.67,West,270,0.0,1.0,73,0.00,CLR,,0.00,WeatherDisplay:10.37,2013-01-26 18:15:00,
2013-01-26 19:20:00,41.5,33.5,29.67,West,270,0.0,1.0,73,0.00,CLR,,0.00,WeatherDisplay:10.37,2013-01-26 18:20:00,
2013-01-26 19:25:00,41.4,33.4,29.68,West,274,0.0,2.0,73,0.00,CLR,,0.00,WeatherDisplay:10.37,2013-01-26 18:25:00,
2013-01-26 19:30:00,41.4,33.4,29.68,WNW,297,0.0,2.0,73,0.00,CLR,,0.00,WeatherDisplay:10.37,2013-01-26 18:30:00,
2013-01-26 19:35:00,41.4,33.4,29.68,NW,315,0.0,2.0,73,0.00,CLR,,0.00,WeatherDisplay:10.37,2013-01-26 18:35:00,
2013-01-26 19:40:00,41.4,33.4,29.68,NW,311,0.0,2.0,73,0.00,CLR,,0.00,WeatherDisplay:10.37,2013-01-26 18:40:00,
2013-01-26 19:45:00,41.4,33.4,29.68,WNW,288,0.0,2.0,73,0.00,CLR,,0.00,WeatherDisplay:10.37,2013-01-26 18:45:00,
2013-01-26 19:50:00,41.4,33.4,29.68,West,270,0.0,2.0,73,0.00,CLR,,0.00,WeatherDisplay:10.37,2013-01-26 18:50:00,
2013-01-26 19:55:00,41.2,33.5,29.69,West,274,1.0,3.0,74,0.00,CLR,,0.00,WeatherDisplay:10.37,2013-01-26 18:55:00,
2013-01-26 20:00:00,41.2,33.5,29.69,NW,311,1.0,3.0,74,0.00,CLR,,0.00,WeatherDisplay:10.37,2013-01-26 19:00:00,
2013-01-26 20:05:00,41.2,33.5,29.69,North,0,1.0,3.0,74,0.00,CLR,,0.00,WeatherDisplay:10.37,2013-01-26 19:05:00,
2013-01-26 20:10:00,41.2,33.5,29.69,North,356,1.0,3.0,74,0.00,CLR,,0.00,WeatherDisplay:10.37,2013-01-26 19:10:00,
2013-01-26 20:15:00,41.2,33.5,29.69,NNW,343,1.0,2.0,74,0.00,CLR,,0.00,WeatherDisplay:10.37,2013-01-26 19:15:00,
2013-01-26 20:20:00,41.2,33.5,29.69,NNW,338,1.0,2.0,74,0.00,CLR,,0.00,WeatherDisplay:10.37,2013-01-26 19:20:00,
2013-01-26 20:25:00,41.0,33.3,29.71,NNW,340,1.0,2.0,74,0.00,CLR,,0.00,WeatherDisplay:10.37,2013-01-26 19:25:00,
2013-01-26 20:30:00,41.0,33.3,29.71,North,351,1.0,2.0,74,0.00,CLR,,0.00,WeatherDisplay:10.37,2013-01-26 19:30:00,
2013-01-26 20:35:00,41.0,33.3,29.71,North,0,1.0,2.0,74,0.00,CLR,,0.00,WeatherDisplay:10.37,2013-01-26 19:35:00,
2013-01-26 20:40:00,40.6,33.0,29.71,North,356,1.0,3.0,74,0.00,CLR,,0.00,WeatherDisplay:10.37,2013-01-26 19:40:00,
2013-01-26 20:45:00,40.6,33.0,29.71,NNW,333,1.0,3.0,74,0.00,CLR,,0.00,WeatherDisplay:10.37,2013-01-26 19:45:00,
2013-01-26 20:50:00,40.6,33.0,29.71,NW,315,1.0,3.0,74,0.00,CLR,,0.00,WeatherDisplay:10.37,2013-01-26 19:50:00,
2013-01-26 20:55:00,40.5,32.8,29.71,NW,319,1.0,3.0,74,0.00,CLR,,0.00,WeatherDisplay:10.37,2013-01-26 19:55:00,
2013-01-26 21:00:00,40.5,32.8,29.71,NNW,342,1.0,3.0,74,0.00,CLR,,0.00,WeatherDisplay:10.37,2013-01-26 20:00:00,
2013-01-26 21:05:00,40.5,32.8,29.71,North,0,1.0,3.0,74,0.00,CLR,,0.00,WeatherDisplay:10.37,2013-01-26 20:05:00,
2013-01-26 21:10:00,40.3,32.6,29.71,North,357,1.0,3.0,74,0.00,CLR,,0.00,WeatherDisplay:10.37,2013-01-26 20:10:00,
2013-01-26 21:15:00,40.3,32.6,29.71,NNW,327,1.0,3.0,74,0.00,CLR,,0.00,WeatherDisplay:10.37,2013-01-26 20:15:00,
2013-01-26 21:20:00,40.3,32.6,29.71,West,270,1.0,3.0,74,0.00,CLR,,0.00,WeatherDisplay:10.37,2013-01-26 20:20:00,
2013-01-26 21:25:00,40.1,32.5,29.71,West,263,0.0,3.0,74,0.00,CLR,,0.00,WeatherDisplay:10.37,2013-01-26 20:25:00,
2013-01-26 21:30:00,40.1,32.5,29.71,WSW,237,0.0,2.0,74,0.00,CLR,,0.00,WeatherDisplay:10.37,2013-01-26 20:30:00,
2013-01-26 21:35:00,40.1,32.5,29.71,SW,225,0.0,2.0,74,0.00,CLR,,0.00,WeatherDisplay:10.37,2013-01-26 20:35:00,
2013-01-26 21:40:00,39.7,32.5,29.72,SW,229,1.0,3.0,75,0.00,CLR,,0.00,WeatherDisplay:10.37,2013-01-26 20:40:00,
2013-01-26 21:45:00,39.7,32.5,29.72,West,266,1.0,3.0,75,0.00,CLR,,0.00,WeatherDisplay:10.37,2013-01-26 20:45:00,
2013-01-26 21:50:00,39.7,32.5,29.72,NW,315,1.0,3.0,75,0.00,CLR,,0.00,WeatherDisplay:10.37,2013-01-26 20:50:00,
2013-01-26 21:55:00,39.4,32.1,29.72,NW,315,1.0,3.0,75,0.00,CLR,,0.00,WeatherDisplay:10.37,2013-01-26 20:55:00,
2013-01-26 22:00:00,39.4,32.1,29.72,NW,315,1.0,2.0,75,0.00,CLR,,0.00,WeatherDisplay:10.37,2013-01-26 21:00:00,
2013-01-26 22:05:00,39.4,32.1,29.72,NW,315,1.0,2.0,75,0.00,CLR,,0.00,WeatherDisplay:10.37,2013-01-26 21:05:00,
2013-01-26 22:10:00,39.2,31.9,29.73,NW,317,1.0,3.0,75,0.00,CLR,,0.00,WeatherDisplay:10.37,2013-01-26 21:10:00,
2013-01-26 22:15:00,39.2,31.9,29.73,NNW,329,1.0,3.0,75,0.00,CLR,,0.00,WeatherDisplay:10.37,2013-01-26 21:15:00,
2013-01-26 22:20:00,39.2,31.9,29.73,NNW,338,1.0,3.0,75,0.00,CLR,,0.00,WeatherDisplay:10.37,2013-01-26 21:20:00,
2013-01-26 22:25:00,39.2,31.9,29.72,NNW,340,1.0,3.0,75,0.00,CLR,,0.00,WeatherDisplay:10.37,2013-01-26 21:25:00,
2013-01-26 22:30:00,39.2,31.9,29.72,North,351,1.0,2.0,75,0.00,CLR,,0.00,WeatherDisplay:10.37,2013-01-26 21:30:00,
2013-01-26 22:35:00,39.2,31.9,29.72,North,0,1.0,2.0,75,0.00,CLR,,0.00,WeatherDisplay:10.37,2013-01-26 21:35:00,
2013-01-26 22:40:00,39.6,32.6,29.72,North,353,0.0,2.0,76,0.00,CLR,,0.00,WeatherDisplay:10.37,2013-01-26 21:40:00,
2013-01-26 22:45:00,39.6,32.6,29.72,NNW,327,0.0,1.0,76,0.00,CLR,,0.00,WeatherDisplay:10.37,2013-01-26 21:45:00,
2013-01-26 22:50:00,39.6,32.6,29.72,NW,315,0.0,1.0,76,0.00,CLR,,0.00,WeatherDisplay:10.37,2013-01-26 21:50:00,
2013-01-26 22:55:00,39.7,32.8,29.72,NW,318,1.0,3.0,76,0.00,CLR,,0.00,WeatherDisplay:10.37,2013-01-26 21:55:00,
2013-01-26 23:00:00,39.7,32.8,29.72,NNW,336,1.0,3.0,76,0.00,CLR,,0.00,WeatherDisplay:10.37,2013-01-26 22:00:00,
2013-01-26 23:05:00,39.7,32.8,29.72,North,0,1.0,3.0,76,0.00,CLR,,0.00,WeatherDisplay:10.37,2013-01-26 22:05:00,
2013-01-26 23:10:00,39.9,33.0,29.72,North,9,0.0,3.0,76,0.00,CLR,,0.00,WeatherDisplay:10.37,2013-01-26 22:10:00,
2013-01-26 23:15:00,39.9,33.0,29.72,NE,51,0.0,1.0,76,0.00,CLR,,0.00,WeatherDisplay:10.37,2013-01-26 22:15:00,
2013-01-26 23:20:00,39.9,33.0,29.72,ENE,68,0.0,1.0,76,0.00,CLR,,0.00,WeatherDisplay:10.37,2013-01-26 22:20:00,
2013-01-26 23:25:00,39.9,33.0,29.72,ENE,72,0.0,2.0,76,0.00,CLR,,0.00,WeatherDisplay:10.37,2013-01-26 22:25:00,
2013-01-26 23:30:00,39.9,33.0,29.72,East,95,0.0,2.0,76,0.00,CLR,,0.00,WeatherDisplay:10.37,2013-01-26 22:30:00,
2013-01-26 23:35:00,39.9,33.0,29.72,ESE,112,0.0,2.0,76,0.00,CLR,,0.00,WeatherDisplay:10.37,2013-01-26 22:35:00,
2013-01-26 23:40:00,39.7,32.8,29.72,ESE,111,1.0,3.0,76,0.00,CLR,,0.00,WeatherDisplay:10.37,2013-01-26 22:40:00,
2013-01-26 23:45:00,39.7,32.8,29.72,ESE,102,1.0,3.0,76,0.00,CLR,,0.00,WeatherDisplay:10.37,2013-01-26 22:45:00,
2013-01-26 23:50:00,39.7,32.8,29.72,East,90,1.0,3.0,76,0.00,CLR,,0.00,WeatherDisplay:10.37,2013-01-26 22:50:00,
2013-01-26 23:55:00,39.7,32.8,29.72,East,81,0.0,3.0,76,0.00,CLR,,0.00,WeatherDisplay:10.37,2013-01-26 22:55:00,